createdAt,value
2018-12-19T00:02:55.049Z,5.37
2018-12-19T00:05:58.212Z,5.10
2018-12-19T00:09:03.259Z,4.67
2018-12-19T00:12:06.643Z,5.13
2018-12-19T00:15:09.765Z,5.23
2018-12-19T00:18:12.850Z,5.03
2018-12-19T00:21:15.935Z,4.80
2018-12-19T00:24:19.122Z,4.50
2018-12-19T00:27:22.193Z,4.30
2018-12-19T00:30:25.392Z,4.53
2018-12-19T00:33:28.481Z,4.33
2018-12-19T00:36:31.602Z,4.10
2018-12-19T00:39:34.673Z,4.23
2018-12-19T00:42:37.850Z,4.60
2018-12-19T00:45:41.022Z,4.13
2018-12-19T00:48:44.109Z,4.33
2018-12-19T00:51:47.232Z,3.90
2018-12-19T00:54:50.441Z,3.60
2018-12-19T00:57:53.609Z,3.60
2018-12-19T01:00:56.789Z,3.57
2018-12-19T01:03:59.905Z,3.50
2018-12-19T01:07:03.010Z,3.33
2018-12-19T01:10:06.330Z,3.40
2018-12-19T01:13:09.433Z,3.33
2018-12-19T01:16:12.603Z,3.50
2018-12-19T01:19:15.774Z,3.33
2018-12-19T01:22:18.903Z,3.10
2018-12-19T01:25:22.049Z,3.13
2018-12-19T01:28:25.251Z,3.30
2018-12-19T01:31:28.365Z,2.90
2018-12-19T01:34:31.429Z,2.97
2018-12-19T01:37:35.445Z,2.60
2018-12-19T01:40:38.860Z,2.77
2018-12-19T01:43:41.947Z,2.77
2018-12-19T01:46:45.092Z,3.20
2018-12-19T01:49:48.270Z,2.57
2018-12-19T01:52:51.381Z,2.87
2018-12-19T01:55:54.769Z,2.60
2018-12-19T01:58:57.933Z,2.63
2018-12-19T02:02:00.999Z,2.63
2018-12-19T02:05:04.450Z,2.53
2018-12-19T02:08:07.599Z,2.60
2018-12-19T02:11:11.250Z,2.43
2018-12-19T02:14:14.513Z,2.33
2018-12-19T02:17:17.626Z,2.43
2018-12-19T02:20:20.820Z,2.53
2018-12-19T02:23:23.941Z,2.27
2018-12-19T02:26:27.121Z,2.10
2018-12-19T02:29:30.277Z,2.50
2018-12-19T02:32:33.340Z,2.40
2018-12-19T02:35:36.558Z,2.30
2018-12-19T02:38:39.667Z,2.33
2018-12-19T02:41:42.885Z,2.63
2018-12-19T02:44:45.987Z,2.50
2018-12-19T02:47:49.068Z,2.07
2018-12-19T02:50:52.131Z,2.20
2018-12-19T02:53:55.268Z,2.10
2018-12-19T02:56:58.357Z,2.27
2018-12-19T03:00:01.622Z,2.20
2018-12-19T03:03:04.761Z,2.17
2018-12-19T03:06:07.861Z,2.10
2018-12-19T03:09:10.941Z,2.13
2018-12-19T03:12:14.072Z,1.90
2018-12-19T03:15:17.130Z,2.10
2018-12-19T03:18:20.184Z,2.40
2018-12-19T03:21:23.265Z,2.30
2018-12-19T03:24:26.409Z,2.23
2018-12-19T03:27:29.494Z,2.20
2018-12-19T03:30:32.649Z,2.00
2018-12-19T03:33:35.794Z,2.27
2018-12-19T03:36:38.926Z,2.00
2018-12-19T03:39:42.082Z,2.00
2018-12-19T03:42:45.178Z,2.20
2018-12-19T03:45:48.353Z,2.13
2018-12-19T03:48:57.828Z,2.30
2018-12-19T03:52:01.064Z,2.23
2018-12-19T03:55:04.808Z,2.20
2018-12-19T03:58:08.005Z,2.00
2018-12-19T04:01:11.094Z,2.20
2018-12-19T04:04:14.188Z,2.00
2018-12-19T04:07:17.324Z,2.10
2018-12-19T04:10:20.395Z,1.90
2018-12-19T04:13:23.550Z,2.20
2018-12-19T04:16:26.643Z,1.80
2018-12-19T04:19:29.763Z,2.20
2018-12-19T04:22:32.870Z,1.90
2018-12-19T04:25:36.011Z,2.03
2018-12-19T04:28:39.059Z,1.90
2018-12-19T04:31:42.148Z,1.80
2018-12-19T04:34:46.255Z,1.80
2018-12-19T04:37:49.435Z,1.97
2018-12-19T04:40:52.489Z,2.10
2018-12-19T04:43:55.563Z,2.00
2018-12-19T04:46:58.666Z,2.10
2018-12-19T04:50:01.739Z,2.20
2018-12-19T04:53:04.903Z,1.90
2018-12-19T04:56:08.043Z,2.10
2018-12-19T04:59:11.138Z,2.53
2018-12-19T05:02:14.278Z,2.20
2018-12-19T05:05:17.425Z,2.70
2018-12-19T05:08:20.610Z,2.27
2018-12-19T05:11:23.788Z,2.37
2018-12-19T05:14:27.127Z,2.07
2018-12-19T05:17:30.306Z,2.27
2018-12-19T05:20:33.483Z,1.73
2018-12-19T05:23:36.560Z,1.70
2018-12-19T05:26:39.717Z,2.07
2018-12-19T05:29:42.823Z,1.90
2018-12-19T05:32:46.037Z,2.00
2018-12-19T05:35:49.281Z,2.00
2018-12-19T05:39:01.510Z,2.10
2018-12-19T05:42:04.951Z,2.00
2018-12-19T05:45:08.855Z,2.10
2018-12-19T05:48:12.065Z,1.83
2018-12-19T05:51:15.206Z,2.13
2018-12-19T05:54:18.395Z,1.80
2018-12-19T05:57:21.951Z,1.93
2018-12-19T06:00:25.021Z,2.00
2018-12-19T06:03:28.168Z,1.90
2018-12-19T06:06:31.265Z,1.80
2018-12-19T06:09:34.373Z,1.83
2018-12-19T06:12:37.625Z,1.90
2018-12-19T06:15:40.838Z,1.83
2018-12-19T06:18:44.068Z,2.37
2018-12-19T06:21:47.154Z,2.00
2018-12-19T06:24:50.276Z,1.80
2018-12-19T06:27:53.642Z,1.80
2018-12-19T06:30:56.905Z,1.83
2018-12-19T06:34:00.371Z,1.67
2018-12-19T06:37:03.605Z,1.87
2018-12-19T06:40:07.334Z,1.70
2018-12-19T06:43:10.437Z,1.70
2018-12-19T06:46:13.549Z,1.70
2018-12-19T06:49:16.668Z,1.90
2018-12-19T06:52:19.784Z,1.63
2018-12-19T06:55:22.954Z,1.70
2018-12-19T06:58:26.205Z,1.90
2018-12-19T07:01:29.306Z,1.87
2018-12-19T07:04:32.419Z,1.90
2018-12-19T07:07:35.642Z,2.10
2018-12-19T07:10:39.181Z,1.90
2018-12-19T07:13:42.784Z,1.60
2018-12-19T07:16:46.013Z,1.97
2018-12-19T07:19:49.095Z,1.70
2018-12-19T07:22:52.278Z,1.87
2018-12-19T07:25:55.420Z,1.63
2018-12-19T07:28:58.552Z,2.10
2018-12-19T07:32:01.657Z,2.10
2018-12-19T07:35:04.862Z,2.00
2018-12-19T07:38:07.948Z,2.00
2018-12-19T07:41:11.059Z,1.87
2018-12-19T07:44:14.234Z,1.87
2018-12-19T07:47:17.410Z,2.00
2018-12-19T07:50:20.619Z,2.30
2018-12-19T07:53:23.695Z,1.87
2018-12-19T07:56:27.192Z,1.90
2018-12-19T07:59:30.257Z,2.00
2018-12-19T08:02:33.328Z,2.30
2018-12-19T08:05:36.443Z,2.07
2018-12-19T08:08:39.491Z,2.13
2018-12-19T08:11:42.642Z,2.00
2018-12-19T08:14:45.691Z,2.20
2018-12-19T08:17:48.814Z,2.37
2018-12-19T08:20:51.866Z,2.07
2018-12-19T08:23:54.937Z,2.40
2018-12-19T08:26:58.107Z,2.17
2018-12-19T08:30:01.223Z,2.30
2018-12-19T08:33:04.285Z,2.17
2018-12-19T08:36:07.402Z,2.27
2018-12-19T08:39:10.457Z,2.07
2018-12-19T08:42:13.602Z,2.37
2018-12-19T08:45:17.001Z,2.10
2018-12-19T08:48:20.073Z,2.07
2018-12-19T08:51:23.213Z,2.30
2018-12-19T08:54:26.314Z,2.00
2018-12-19T08:57:29.460Z,1.90
2018-12-19T09:00:32.579Z,2.13
2018-12-19T09:03:35.689Z,2.37
2018-12-19T09:06:38.849Z,2.40
2018-12-19T09:09:41.947Z,2.57
2018-12-19T09:12:45.099Z,2.47
2018-12-19T09:15:51.902Z,2.47
2018-12-19T09:18:55.003Z,2.30
2018-12-19T09:21:58.298Z,2.30
2018-12-19T09:25:01.385Z,2.20
2018-12-19T09:28:05.045Z,2.27
2018-12-19T09:31:08.207Z,2.33
2018-12-19T09:34:11.326Z,1.97
2018-12-19T09:37:14.464Z,2.30
2018-12-19T09:40:18.238Z,2.30
2018-12-19T09:43:21.342Z,2.57
2018-12-19T09:46:24.481Z,2.40
2018-12-19T09:49:27.607Z,2.57
2018-12-19T09:52:30.880Z,2.53
2018-12-19T09:55:33.940Z,2.70
2018-12-19T09:58:37.134Z,2.80
2018-12-19T10:01:40.254Z,3.00
2018-12-19T10:04:43.400Z,3.23
2018-12-19T10:07:46.542Z,3.27
2018-12-19T10:10:49.619Z,3.43
2018-12-19T10:13:52.783Z,4.10
2018-12-19T10:16:55.885Z,3.90
2018-12-19T10:19:59.010Z,4.17
2018-12-19T10:23:02.111Z,4.10
2018-12-19T10:26:10.724Z,4.40
2018-12-19T10:29:13.836Z,4.83
2018-12-19T10:32:16.949Z,4.83
2018-12-19T10:35:20.277Z,4.47
2018-12-19T10:38:23.891Z,4.93
2018-12-19T10:41:27.019Z,5.67
2018-12-19T10:44:30.207Z,5.13
2018-12-19T10:47:33.306Z,5.27
2018-12-19T10:50:36.447Z,5.63
2018-12-19T10:53:39.868Z,5.67
2018-12-19T10:56:43.089Z,10.57
2018-12-19T10:59:46.590Z,13.63
2018-12-19T11:02:49.718Z,15.17
2018-12-19T11:05:54.508Z,14.57
2018-12-19T11:08:58.050Z,15.50
2018-12-19T11:12:01.389Z,14.47
2018-12-19T11:15:07.848Z,15.57
2018-12-19T11:18:11.062Z,14.97
2018-12-19T11:21:21.862Z,13.10
2018-12-19T11:24:38.179Z,13.63
2018-12-19T11:27:42.238Z,13.60
2018-12-19T11:30:45.595Z,13.63
2018-12-19T11:33:48.840Z,13.27
2018-12-19T11:36:52.771Z,12.33
2018-12-19T11:43:42.164Z,11.93
2018-12-19T11:46:45.788Z,11.37
2018-12-19T11:49:50.557Z,12.10
2018-12-19T11:52:53.985Z,11.60
2018-12-19T11:55:57.404Z,11.40
2018-12-19T11:59:00.704Z,10.27
2018-12-19T12:02:04.025Z,11.20
2018-12-19T12:05:07.239Z,10.33
2018-12-19T12:08:10.492Z,9.53
2018-12-19T12:11:13.666Z,9.93
2018-12-19T12:14:16.813Z,10.00
2018-12-19T12:17:20.022Z,9.30
2018-12-19T12:20:23.206Z,8.93
2018-12-19T12:23:26.468Z,8.77
2018-12-19T12:26:29.623Z,8.73
2018-12-19T12:29:33.082Z,8.40
2018-12-19T12:32:36.335Z,7.97
2018-12-19T12:35:40.301Z,7.77
2018-12-19T12:38:44.005Z,8.03
2018-12-19T12:41:52.319Z,7.63
2018-12-19T12:44:52.738Z,7.77
2018-12-19T12:47:55.950Z,7.80
2018-12-19T12:50:59.276Z,7.53
2018-12-19T12:54:02.576Z,7.33
2018-12-19T12:57:05.852Z,6.87
2018-12-19T13:00:09.474Z,6.67
2018-12-19T13:03:12.715Z,7.27
2018-12-19T13:06:16.424Z,6.67
2018-12-19T13:09:20.081Z,6.27
2018-12-19T13:12:23.856Z,6.43
2018-12-19T13:15:32.396Z,6.67
2018-12-19T13:18:35.760Z,6.40
2018-12-19T13:21:39.288Z,6.20
2018-12-19T13:24:44.576Z,5.73
2018-12-19T13:27:48.138Z,5.47
2018-12-19T13:30:51.317Z,6.13
2018-12-19T13:33:54.606Z,5.60
2018-12-19T13:36:58.026Z,5.70
2018-12-19T13:40:01.253Z,5.07
2018-12-19T13:43:04.658Z,5.33
2018-12-19T13:46:07.795Z,5.10
2018-12-19T13:49:10.935Z,5.33
2018-12-19T13:52:14.029Z,5.90
2018-12-19T13:55:17.287Z,5.10
2018-12-19T13:58:20.803Z,5.63
2018-12-19T14:01:24.042Z,5.10
2018-12-19T14:04:27.477Z,5.07
2018-12-19T14:07:30.555Z,4.47
2018-12-19T14:10:33.705Z,4.93
2018-12-19T14:13:37.734Z,5.17
2018-12-19T14:16:40.943Z,4.83
2018-12-19T14:19:44.349Z,4.83
2018-12-19T14:22:47.755Z,4.73
2018-12-19T14:25:51.023Z,4.47
2018-12-19T14:28:54.304Z,4.27
2018-12-19T14:31:58.210Z,4.50
2018-12-19T14:35:01.315Z,4.33
2018-12-19T14:38:04.479Z,3.97
2018-12-19T14:41:07.780Z,3.90
2018-12-19T14:44:10.902Z,4.23
2018-12-19T14:47:14.343Z,4.13
2018-12-19T14:50:17.692Z,3.77
2018-12-19T14:53:20.822Z,3.73
2018-12-19T14:56:23.974Z,3.93
2018-12-19T14:59:27.864Z,3.83
2018-12-19T15:02:31.417Z,3.67
2018-12-19T15:05:34.649Z,3.60
2018-12-19T15:08:37.898Z,3.50
2018-12-19T15:11:41.104Z,3.43
2018-12-19T15:14:44.300Z,3.60
2018-12-19T15:17:47.508Z,3.60
2018-12-19T15:20:50.702Z,3.30
2018-12-19T15:23:54.218Z,3.23
2018-12-19T15:26:57.698Z,3.23
2018-12-19T15:30:01.764Z,3.50
2018-12-19T15:33:05.020Z,3.33
2018-12-19T15:36:09.034Z,3.13
2018-12-19T15:39:12.243Z,3.10
2018-12-19T15:42:15.409Z,3.37
2018-12-19T15:45:18.887Z,3.27
2018-12-19T15:48:22.650Z,3.40
2018-12-19T15:51:33.924Z,3.13
2018-12-19T15:54:37.159Z,3.40
2018-12-19T15:57:45.511Z,3.50
2018-12-19T16:00:50.386Z,3.77
2018-12-19T16:03:56.683Z,3.67
2018-12-19T16:07:01.110Z,4.07
2018-12-19T16:10:06.888Z,4.47
2018-12-19T16:13:10.812Z,4.07
2018-12-19T16:16:14.354Z,4.87
2018-12-19T16:19:23.252Z,4.80
2018-12-19T16:22:29.241Z,4.20
2018-12-19T16:25:32.526Z,4.87
2018-12-19T16:28:36.431Z,4.60
2018-12-19T16:31:39.881Z,4.93
2018-12-19T16:34:51.379Z,7.10
2018-12-19T16:37:54.952Z,10.23
2018-12-19T16:40:58.135Z,12.20
2018-12-19T16:44:01.518Z,16.73
2018-12-19T16:47:04.868Z,24.37
2018-12-19T16:50:15.104Z,26.07
2018-12-19T16:53:19.419Z,31.00
2018-12-19T16:56:22.694Z,32.13
2018-12-19T16:59:25.867Z,37.37
2018-12-19T17:02:30.872Z,37.30
2018-12-19T17:05:34.120Z,36.33
2018-12-19T17:08:37.350Z,38.83
2018-12-19T17:11:40.592Z,41.27
2018-12-19T17:14:45.903Z,43.70
2018-12-19T17:17:51.000Z,42.07
2018-12-19T17:20:57.529Z,42.47
2018-12-19T17:24:01.640Z,43.40
2018-12-19T17:27:04.931Z,42.13
2018-12-19T17:30:08.178Z,43.00
2018-12-19T17:33:12.335Z,42.33
2018-12-19T17:36:15.439Z,42.77
2018-12-19T17:39:18.621Z,41.67
2018-12-19T17:42:21.757Z,40.40
2018-12-19T17:45:25.040Z,40.27
2018-12-19T17:48:28.167Z,40.77
2018-12-19T17:51:31.352Z,39.47
2018-12-19T17:54:34.545Z,39.13
2018-12-19T17:57:37.760Z,36.37
2018-12-19T18:00:40.906Z,37.07
2018-12-19T18:03:44.011Z,35.87
2018-12-19T18:06:47.180Z,35.30
2018-12-19T18:09:50.283Z,34.27
2018-12-19T18:12:53.423Z,34.23
2018-12-19T18:15:56.582Z,32.13
2018-12-19T18:19:05.375Z,31.77
2018-12-19T18:22:08.554Z,30.33
2018-12-19T18:25:11.723Z,29.93
2018-12-19T18:28:14.887Z,27.43
2018-12-19T18:31:18.123Z,27.77
2018-12-19T18:34:21.972Z,26.77
2018-12-19T18:37:25.081Z,25.70
2018-12-19T18:40:28.279Z,26.10
2018-12-19T18:43:31.462Z,23.77
2018-12-19T18:46:34.685Z,24.00
2018-12-19T18:49:37.929Z,23.40
2018-12-19T18:52:41.071Z,21.53
2018-12-19T18:55:44.174Z,20.50
2018-12-19T18:58:47.433Z,21.60
2018-12-19T19:01:50.659Z,20.67
2018-12-19T19:04:53.869Z,19.33
2018-12-19T19:07:57.197Z,18.33
2018-12-19T19:11:02.138Z,18.03
2018-12-19T19:14:05.355Z,16.53
2018-12-19T19:17:08.526Z,16.27
2018-12-19T19:20:12.780Z,15.60
2018-12-19T19:23:16.056Z,15.03
2018-12-19T19:26:19.170Z,15.00
2018-12-19T19:29:22.392Z,13.87
2018-12-19T19:32:25.505Z,11.27
2018-12-19T19:35:28.598Z,9.97
2018-12-19T19:38:31.845Z,10.37
2018-12-19T19:41:35.260Z,9.93
2018-12-19T19:44:38.446Z,9.17
2018-12-19T19:47:41.563Z,8.63
2018-12-19T19:50:44.739Z,8.40
2018-12-19T19:53:47.843Z,9.03
2018-12-19T19:56:50.956Z,7.80
2018-12-19T19:59:54.050Z,8.40
2018-12-19T20:02:57.126Z,7.97
2018-12-19T20:06:00.302Z,7.80
2018-12-19T20:09:04.520Z,7.97
2018-12-19T20:12:07.677Z,7.70
2018-12-19T20:15:11.015Z,6.97
2018-12-19T20:18:15.054Z,7.23
2018-12-19T20:21:18.209Z,7.70
2018-12-19T20:24:21.691Z,8.20
2018-12-19T20:27:25.104Z,7.93
2018-12-19T20:30:28.991Z,8.03
2018-12-19T20:33:36.600Z,8.00
2018-12-19T20:36:40.063Z,7.63
2018-12-19T20:39:43.221Z,6.93
2018-12-19T20:42:46.506Z,7.67
2018-12-19T20:45:50.063Z,7.17
2018-12-19T20:48:53.779Z,7.47
2018-12-19T20:51:57.438Z,7.30
2018-12-19T20:55:00.714Z,7.47
2018-12-19T20:58:03.924Z,7.00
2018-12-19T21:01:07.119Z,6.87
2018-12-19T21:04:10.472Z,6.87
2018-12-19T21:07:13.892Z,7.10
2018-12-19T21:10:17.239Z,7.63
2018-12-19T21:13:20.439Z,7.57
2018-12-19T21:16:27.783Z,6.97
2018-12-19T21:19:30.947Z,6.40
2018-12-19T21:22:34.139Z,7.47
2018-12-19T21:25:37.248Z,6.83
2018-12-19T21:28:40.470Z,7.20
2018-12-19T21:31:43.642Z,7.23
2018-12-19T21:34:47.440Z,7.17
2018-12-19T21:37:50.610Z,6.70
2018-12-19T21:40:53.884Z,6.93
2018-12-19T21:43:57.173Z,6.63
2018-12-19T21:47:00.409Z,7.00
2018-12-19T21:50:03.603Z,6.70
2018-12-19T21:53:06.773Z,6.57
2018-12-19T21:56:10.054Z,7.30
2018-12-19T21:59:13.231Z,6.90
2018-12-19T22:02:16.419Z,7.00
2018-12-19T22:05:19.712Z,6.40
2018-12-19T22:08:23.092Z,6.43
2018-12-19T22:11:28.068Z,6.80
2018-12-19T22:14:31.411Z,6.57
2018-12-19T22:17:40.019Z,5.30
2018-12-19T22:20:43.132Z,5.60
2018-12-19T22:23:46.406Z,55.80
2018-12-19T22:26:49.667Z,62.33
2018-12-19T22:29:52.923Z,59.27
2018-12-19T22:32:56.090Z,50.93
2018-12-19T22:35:59.399Z,45.80
2018-12-19T22:39:02.734Z,42.33
2018-12-19T22:42:09.404Z,38.40
2018-12-19T22:45:13.337Z,34.03
2018-12-19T22:48:16.685Z,29.93
2018-12-19T22:51:19.951Z,28.80
2018-12-19T22:54:23.234Z,25.83
2018-12-19T22:57:26.663Z,26.30
2018-12-19T23:00:34.073Z,25.33
2018-12-19T23:03:42.610Z,22.57
2018-12-19T23:06:45.895Z,20.43
2018-12-19T23:09:49.078Z,20.23
2018-12-19T23:13:02.428Z,19.93
2018-12-19T23:16:05.930Z,18.20
2018-12-19T23:19:09.046Z,18.87
2018-12-19T23:22:13.020Z,17.27
2018-12-19T23:25:16.424Z,16.83
2018-12-19T23:28:19.601Z,16.00
2018-12-19T23:31:22.950Z,17.03
2018-12-19T23:34:26.196Z,15.40
2018-12-19T23:37:29.361Z,14.63
2018-12-19T23:40:32.585Z,14.27
2018-12-19T23:43:35.833Z,14.00
2018-12-19T23:46:39.209Z,13.50
2018-12-19T23:49:42.490Z,13.20
2018-12-19T23:52:45.706Z,13.33
2018-12-19T23:55:49.044Z,12.20
2018-12-19T23:58:52.306Z,11.70
